Time;durP1;ratioP1;P1;durP2;ratioP2;P2;SDS_P1;SDS_P2;PMS_P1;PMS_P2;Temp;Humidity;BMP_temperature;BMP_pressure;BME280_temperature;BME280_humidity;BME280_pressure;Samples;Min_cycle;Max_cycle;Signal;HPM_P1;HPM_P2
2021/01/28 00:01:06;;;;;;;162.00;84.30;;;;;;;-1.25;77.29;98604.65;123414;1102;64931;-80
2021/01/28 00:03:33;;;;;;;167.87;83.33;;;;;;;-1.25;77.34;98596.80;123445;1101;64860;-80
2021/01/28 00:06:01;;;;;;;156.50;80.23;;;;;;;-1.23;77.77;98588.02;123331;1105;64988;-80
2021/01/28 00:08:27;;;;;;;160.77;82.43;;;;;;;-1.21;77.36;98586.23;123415;1102;65065;-80
2021/01/28 00:10:54;;;;;;;163.93;83.47;;;;;;;-1.21;77.81;98585.35;123362;1102;64969;-79
2021/01/28 00:13:21;;;;;;;160.20;84.93;;;;;;;-1.30;77.15;98591.69;123354;1105;65068;-79
2021/01/28 00:15:48;;;;;;;175.83;85.80;;;;;;;-1.34;77.94;98587.45;123360;1102;64959;-80
2021/01/28 00:18:15;;;;;;;167.87;87.70;;;;;;;-1.37;77.97;98585.77;123380;1102;64939;-79
2021/01/28 00:20:44;;;;;;;171.83;87.60;;;;;;;-1.39;77.41;98586.71;123344;1102;65045;-79
2021/01/28 00:23:12;;;;;;;176.80;91.20;;;;;;;-1.38;78.16;98584.04;123441;1103;64972;-79
2021/01/28 00:25:39;;;;;;;175.07;88.83;;;;;;;-1.39;77.82;98576.26;123395;1102;65269;-81
2021/01/28 00:28:08;;;;;;;173.67;90.10;;;;;;;-1.36;78.40;98590.09;123342;1105;64908;-80
2021/01/28 00:30:40;;;;;;;180.73;88.93;;;;;;;-1.28;77.82;98575.98;123443;1102;64843;-79
2021/01/28 00:33:08;;;;;;;179.10;92.43;;;;;;;-1.35;77.85;98576.11;123435;1102;65049;-78
2021/01/28 00:35:39;;;;;;;181.73;95.80;;;;;;;-1.42;78.50;98585.03;123451;1102;65289;-79
2021/01/28 00:38:09;;;;;;;176.90;92.15;;;;;;;-1.42;78.34;98577.19;123393;1102;64886;-79
2021/01/28 00:40:35;;;;;;;178.35;94.60;;;;;;;-1.37;77.76;98572.70;123396;1101;64889;-78
2021/01/28 00:43:02;;;;;;;172.33;89.33;;;;;;;-1.40;77.81;98567.53;123407;1102;64886;-79
2021/01/28 00:45:31;;;;;;;172.07;88.93;;;;;;;-1.40;78.30;98569.29;123333;1105;64959;-79
2021/01/28 00:47:58;;;;;;;159.57;84.10;;;;;;;-1.40;78.11;98566.67;123389;1102;64914;-79
2021/01/28 00:50:29;;;;;;;164.80;88.80;;;;;;;-1.41;78.33;98567.59;123417;1102;64937;-80
2021/01/28 00:52:56;;;;;;;161.90;85.70;;;;;;;-1.38;78.22;98570.97;123384;1102;64885;-79
2021/01/28 00:55:23;;;;;;;170.67;87.27;;;;;;;-1.37;77.70;98563.98;123359;1105;64991;-79
2021/01/28 00:57:50;;;;;;;166.03;88.17;;;;;;;-1.38;78.41;98564.89;123378;1102;65062;-80
2021/01/28 01:00:29;;;;;;;156.93;82.10;;;;;;;-1.37;78.54;98562.25;123383;1104;64854;-80
2021/01/28 01:02:56;;;;;;;164.90;82.00;;;;;;;-1.36;78.43;98557.88;123391;1102;64937;-80
2021/01/28 01:05:25;;;;;;;150.67;80.33;;;;;;;-1.40;77.79;98564.06;123419;1102;64909;-80
2021/01/28 01:07:52;;;;;;;153.87;78.23;;;;;;;-1.47;78.12;98555.54;123419;1104;64895;-80
2021/01/28 01:10:30;;;;;;;146.60;77.13;;;;;;;-1.47;77.63;98559.91;123363;1102;64911;-78
2021/01/28 01:12:57;;;;;;;141.03;73.33;;;;;;;-1.47;77.77;98558.16;123422;1102;64831;-79
2021/01/28 01:15:23;;;;;;;148.45;77.20;;;;;;;-1.55;77.37;98555.73;123364;1105;64930;-79
2021/01/28 01:17:50;;;;;;;149.23;77.03;;;;;;;-1.56;78.18;98553.14;123382;1102;64892;-78
2021/01/28 01:20:20;;;;;;;139.93;75.33;;;;;;;-1.64;78.29;98558.56;123347;1105;64947;-78
2021/01/28 01:22:46;;;;;;;156.45;74.95;;;;;;;-1.70;77.80;98545.66;123364;1102;65154;-79
2021/01/28 01:25:14;;;;;;;152.43;77.30;;;;;;;-1.76;77.77;98543.21;123371;1102;64908;-79
2021/01/28 01:27:41;;;;;;;152.30;73.40;;;;;;;-1.85;78.22;98539.05;123329;1102;64984;-79
2021/01/28 01:30:09;;;;;;;142.90;73.95;;;;;;;-1.90;77.79;98530.46;123375;1105;64943;-78
2021/01/28 01:32:36;;;;;;;147.17;75.37;;;;;;;-1.93;77.87;98533.15;123392;1105;64824;-79
2021/01/28 01:35:07;;;;;;;143.53;74.00;;;;;;;-1.96;78.04;98529.77;123380;1102;64997;-79
2021/01/28 01:37:33;;;;;;;148.73;75.47;;;;;;;-2.02;77.92;98525.55;123389;1102;65259;-81
2021/01/28 01:40:01;;;;;;;137.63;72.37;;;;;;;-2.08;78.23;98517.84;123435;1102;64866;-79
2021/01/28 01:42:27;;;;;;;147.63;76.30;;;;;;;-2.16;78.76;98519.78;123375;1102;64933;-79
2021/01/28 01:44:54;;;;;;;145.60;70.60;;;;;;;-2.28;77.87;98521.79;123386;1102;64908;-79
2021/01/28 01:47:45;;;;;;;135.93;70.40;;;;;;;-2.40;78.22;98521.20;123314;1102;65086;-79
2021/01/28 01:50:36;;;;;;;150.80;73.60;;;;;;;-2.52;78.64;98525.81;123386;1102;65011;-80
2021/01/28 01:53:09;;;;;;;146.10;71.00;;;;;;;-2.65;78.87;98512.17;123339;1102;64937;-79
2021/01/28 01:55:37;;;;;;;136.87;69.10;;;;;;;-2.72;78.00;98512.33;123386;1102;64908;-79
2021/01/28 01:58:07;;;;;;;132.00;69.20;;;;;;;-2.85;78.36;98506.52;123391;1102;64991;-79
2021/01/28 02:00:34;;;;;;;145.27;71.67;;;;;;;-2.99;78.64;98511.17;123336;1102;65215;-79
2021/01/28 02:03:08;;;;;;;144.20;73.13;;;;;;;-3.05;78.57;98508.66;123371;1102;65014;-79
2021/01/28 02:05:38;;;;;;;139.80;71.00;;;;;;;-3.20;79.01;98495.06;123384;1102;64908;-79
2021/01/28 02:08:05;;;;;;;134.45;70.50;;;;;;;-3.28;78.75;98491.75;123361;1105;64991;-79
2021/01/28 02:10:32;;;;;;;136.60;69.23;;;;;;;-3.32;79.35;98487.47;123373;1102;65288;-79
2021/01/28 02:13:01;;;;;;;138.25;65.40;;;;;;;-3.33;79.60;98488.38;123390;1102;66100;-80
2021/01/28 02:15:28;;;;;;;128.90;64.97;;;;;;;-3.37;78.61;98486.70;123486;1102;64962;-79
2021/01/28 02:17:58;;;;;;;130.77;65.60;;;;;;;-3.43;78.79;98487.68;123320;1103;64886;-79
2021/01/28 02:20:36;;;;;;;128.57;66.57;;;;;;;-3.54;79.06;98485.28;123452;1102;64904;-79
2021/01/28 02:23:10;;;;;;;122.90;65.35;;;;;;;-3.64;78.83;98488.94;123346;1102;64886;-79
2021/01/28 02:25:38;;;;;;;131.00;65.90;;;;;;;-3.73;79.16;98478.70;123373;1102;65014;-80
2021/01/28 02:28:06;;;;;;;138.97;69.37;;;;;;;-3.83;78.61;98474.53;123456;1102;65362;-81
2021/01/28 02:30:35;;;;;;;136.63;70.43;;;;;;;-3.90;78.83;98465.11;123390;1102;64889;-80
2021/01/28 02:33:07;;;;;;;129.23;66.25;;;;;;;-3.96;79.29;98460.87;123353;1103;64905;-80
2021/01/28 02:35:35;;;;;;;139.20;68.15;;;;;;;-4.09;78.50;98457.61;123374;1102;64940;-78
2021/01/28 02:38:07;;;;;;;126.53;66.13;;;;;;;-4.19;78.74;98466.45;123354;1103;65504;-79
2021/01/28 02:40:36;;;;;;;138.03;70.60;;;;;;;-4.27;78.44;98463.13;123386;1102;64956;-79
2021/01/28 02:43:02;;;;;;;152.77;77.03;;;;;;;-4.32;78.86;98462.33;123423;1102;64911;-79
2021/01/28 02:45:33;;;;;;;149.00;73.25;;;;;;;-4.35;79.62;98454.58;123399;1102;64908;-79
2021/01/28 02:48:06;;;;;;;121.83;62.13;;;;;;;-4.40;79.39;98459.84;123319;1105;64911;-79
2021/01/28 02:50:34;;;;;;;138.40;67.60;;;;;;;-4.46;78.67;98466.01;123352;1102;65048;-79
2021/01/28 02:53:03;;;;;;;137.47;68.37;;;;;;;-4.52;78.69;98468.71;123381;1101;64933;-79
2021/01/28 02:55:32;;;;;;;145.73;70.77;;;;;;;-4.61;78.55;98460.18;123401;1106;65088;-79
2021/01/28 02:57:58;;;;;;;137.90;68.90;;;;;;;-4.69;79.08;98457.69;123377;1102;65237;-78
2021/01/28 03:00:35;;;;;;;149.67;70.67;;;;;;;-4.77;78.78;98462.99;123395;1105;64873;-79
2021/01/28 03:03:06;;;;;;;143.40;70.73;;;;;;;-4.84;79.09;98466.58;123362;1102;65074;-79
2021/01/28 03:05:32;;;;;;;156.13;76.60;;;;;;;-4.87;78.82;98461.39;123395;1103;65347;-79
2021/01/28 03:07:59;;;;;;;153.95;77.75;;;;;;;-4.89;78.97;98465.78;123363;1103;65039;-80
2021/01/28 03:10:26;;;;;;;146.37;73.63;;;;;;;-4.95;79.54;98460.64;123390;1105;64934;-80
2021/01/28 03:12:53;;;;;;;151.90;76.27;;;;;;;-4.98;79.48;98456.34;123373;1102;65068;-79
2021/01/28 03:15:23;;;;;;;164.67;78.77;;;;;;;-4.99;79.70;98457.23;123360;1102;65021;-79
2021/01/28 03:17:51;;;;;;;151.37;75.87;;;;;;;-5.01;78.99;98453.80;123389;1105;64930;-79
2021/01/28 03:20:18;;;;;;;154.87;76.60;;;;;;;-4.92;80.55;98443.30;123382;1103;64970;-79
2021/01/28 03:22:45;;;;;;;152.95;77.90;;;;;;;-4.83;79.70;98439.70;123332;1103;64876;-79
2021/01/28 03:25:12;;;;;;;147.13;75.47;;;;;;;-4.80;79.53;98431.00;123347;1104;64917;-79
2021/01/28 03:27:40;;;;;;;152.53;75.97;;;;;;;-4.82;80.09;98427.55;123390;1103;64889;-79
2021/01/28 03:30:10;;;;;;;149.55;77.40;;;;;;;-4.83;79.69;98433.64;123360;1102;64978;-79
2021/01/28 03:32:38;;;;;;;135.97;70.00;;;;;;;-4.91;79.05;98432.00;123374;1102;64947;-79
2021/01/28 03:35:06;;;;;;;153.47;75.93;;;;;;;-4.96;79.79;98423.41;123386;1102;65004;-79
2021/01/28 03:37:33;;;;;;;150.77;75.03;;;;;;;-4.91;79.65;98419.02;123414;1102;64994;-79
2021/01/28 03:39:59;;;;;;;143.93;70.23;;;;;;;-4.92;79.32;98421.66;123367;1102;64876;-79
2021/01/28 03:42:26;;;;;;;124.10;64.87;;;;;;;-5.04;79.38;98414.02;123359;1102;64968;-79
2021/01/28 03:44:52;;;;;;;129.50;63.80;;;;;;;-5.22;78.88;98421.16;123376;1106;65532;-79
2021/01/28 03:47:19;;;;;;;127.97;63.20;;;;;;;-5.35;78.91;98412.66;123393;1102;64997;-79
2021/01/28 03:49:46;;;;;;;129.90;65.87;;;;;;;-5.46;78.62;98411.09;123370;1102;64901;-80
2021/01/28 03:52:12;;;;;;;123.57;64.43;;;;;;;-5.55;79.10;98420.72;123350;1102;65064;-80
2021/01/28 03:54:39;;;;;;;123.83;61.80;;;;;;;-5.63;78.41;98412.16;123350;1103;64940;-79
2021/01/28 03:57:06;;;;;;;130.17;63.83;;;;;;;-5.72;77.96;98404.47;123392;1102;64864;-79
2021/01/28 03:59:32;;;;;;;128.10;61.43;;;;;;;-5.80;78.26;98399.36;123418;1102;64940;-79
2021/01/28 04:02:00;;;;;;;125.57;64.73;;;;;;;-5.86;78.75;98398.58;123372;1105;65574;-80
2021/01/28 04:04:27;;;;;;;128.17;64.43;;;;;;;-5.95;78.38;98391.77;123351;1105;65068;-80
2021/01/28 04:06:53;;;;;;;138.10;66.90;;;;;;;-5.94;78.78;98387.47;123416;1102;64834;-79
2021/01/28 04:09:19;;;;;;;136.60;68.65;;;;;;;-5.92;78.76;98390.84;123381;1105;65314;-80
2021/01/28 04:11:46;;;;;;;144.27;70.47;;;;;;;-5.93;78.41;98392.59;123429;1102;64950;-81
2021/01/28 04:14:12;;;;;;;138.17;70.97;;;;;;;-5.92;78.57;98386.55;123342;1102;64912;-79
2021/01/28 04:16:38;;;;;;;141.93;70.87;;;;;;;-5.95;78.91;98383.98;123323;1102;64937;-79
2021/01/28 04:19:05;;;;;;;137.62;71.95;;;;;;;-5.96;79.18;98385.73;123406;1102;64946;-79
2021/01/28 04:21:31;;;;;;;138.37;72.47;;;;;;;-5.90;79.64;98387.36;123368;1105;64953;-80
2021/01/28 04:23:58;;;;;;;141.93;74.37;;;;;;;-5.82;79.59;98388.16;123397;1102;64940;-80
2021/01/28 04:26:25;;;;;;;134.57;70.40;;;;;;;-5.77;79.93;98386.34;123371;1102;64937;-79
2021/01/28 04:28:52;;;;;;;138.83;69.10;;;;;;;-5.65;80.12;98379.31;123387;1102;64908;-79
2021/01/28 04:31:18;;;;;;;129.40;62.77;;;;;;;-5.63;78.90;98381.02;123350;1102;64940;-78
2021/01/28 04:33:45;;;;;;;124.67;61.63;;;;;;;-5.69;78.21;98373.28;123355;1103;64997;-79
2021/01/28 04:36:11;;;;;;;135.10;65.40;;;;;;;-5.76;77.86;98376.84;123365;1102;64883;-79
2021/01/28 04:38:39;;;;;;;127.70;63.83;;;;;;;-5.78;78.45;98370.81;123372;1102;64914;-80
2021/01/28 04:41:27;;;;;;;128.60;65.97;;;;;;;-5.82;78.51;98375.19;123370;1102;64937;-80
2021/01/28 04:43:56;;;;;;;133.20;64.85;;;;;;;-5.88;78.77;98376.98;123399;1102;64911;-80
2021/01/28 04:46:29;;;;;;;133.37;68.57;;;;;;;-5.92;78.33;98376.16;123387;1102;64881;-80
2021/01/28 04:48:57;;;;;;;130.13;65.40;;;;;;;-5.97;79.04;98365.86;123404;1102;64991;-80
2021/01/28 04:51:27;;;;;;;136.85;66.05;;;;;;;-6.02;78.19;98366.79;123381;1102;64882;-80
2021/01/28 04:53:58;;;;;;;121.67;61.83;;;;;;;-6.08;78.15;98377.20;123344;1102;64837;-80
2021/01/28 04:56:27;;;;;;;126.03;63.10;;;;;;;-6.20;77.84;98375.62;123433;1102;64973;-81
2021/01/28 04:59:14;;;;;;;121.45;60.73;;;;;;;-6.24;78.59;98381.69;123420;1102;64984;-79
2021/01/28 05:01:40;;;;;;;128.40;65.70;;;;;;;-6.36;78.52;98380.09;123337;1103;64882;-79
2021/01/28 05:04:11;;;;;;;132.43;66.23;;;;;;;-6.40;79.12;98378.38;123347;1105;64872;-79
2021/01/28 05:06:38;;;;;;;130.83;64.67;;;;;;;-6.44;78.61;98376.71;123364;1102;65135;-80
2021/01/28 05:09:05;;;;;;;127.67;62.03;;;;;;;-6.45;78.48;98382.75;123435;1102;64905;-80
2021/01/28 05:11:34;;;;;;;132.73;66.73;;;;;;;-6.46;78.26;98387.08;123377;1102;64831;-80
2021/01/28 05:14:25;;;;;;;135.00;65.90;;;;;;;-6.50;78.03;98374.16;123475;1101;65445;-80
2021/01/28 05:16:58;;;;;;;125.13;65.43;;;;;;;-6.58;78.81;98374.25;123422;1102;64965;-79
2021/01/28 05:19:48;;;;;;;135.17;66.47;;;;;;;-6.62;78.78;98369.95;123324;1102;64933;-80
2021/01/28 05:22:24;;;;;;;128.95;64.25;;;;;;;-6.60;78.94;98354.40;123339;1102;64905;-79
2021/01/28 05:24:53;;;;;;;134.83;66.73;;;;;;;-6.60;78.28;98346.63;123394;1102;64913;-79
2021/01/28 05:27:25;;;;;;;124.07;63.00;;;;;;;-6.66;78.83;98352.69;123409;1102;64911;-80
2021/01/28 05:29:55;;;;;;;117.85;61.55;;;;;;;-6.68;78.17;98344.09;123394;1102;65403;-79
2021/01/28 05:33:00;;;;;;;127.60;66.10;;;;;;;-6.73;78.37;98338.09;123406;1105;64928;-79
2021/01/28 05:35:28;;;;;;;126.10;61.53;;;;;;;-6.77;77.89;98331.20;123338;1102;64914;-80
2021/01/28 05:38:07;;;;;;;126.50;63.85;;;;;;;-6.80;78.45;98329.50;123365;1104;64949;-82
2021/01/28 05:40:34;;;;;;;136.17;65.97;;;;;;;-6.82;78.68;98330.38;123405;1102;64940;-79
2021/01/28 05:43:20;;;;;;;132.07;66.10;;;;;;;-6.86;78.51;98324.37;123365;1102;64879;-79
2021/01/28 05:45:46;;;;;;;124.93;62.33;;;;;;;-6.87;78.26;98318.34;123396;1102;65011;-80
2021/01/28 05:48:19;;;;;;;135.93;67.60;;;;;;;-6.88;77.96;98319.20;123336;1105;64869;-80
2021/01/28 05:50:46;;;;;;;128.43;66.33;;;;;;;-6.89;78.53;98316.64;123410;1102;64931;-80
2021/01/28 05:53:15;;;;;;;130.83;70.50;;;;;;;-6.82;78.91;98315.69;123342;1105;64975;-80
2021/01/28 05:55:43;;;;;;;127.00;64.92;;;;;;;-6.76;78.45;98317.40;123383;1102;64831;-80
2021/01/28 05:58:49;;;;;;;125.30;62.57;;;;;;;-6.77;78.25;98318.25;123397;1102;64892;-80
2021/01/28 06:01:48;;;;;;;129.53;64.73;;;;;;;-6.89;77.85;98321.81;123421;1102;64909;-80
2021/01/28 06:04:36;;;;;;;121.97;60.77;;;;;;;-6.98;78.18;98317.55;123396;1102;64905;-79
2021/01/28 06:07:24;;;;;;;131.03;61.63;;;;;;;-7.08;77.40;98306.42;123359;1102;64857;-79
2021/01/28 06:10:29;;;;;;;122.33;62.20;;;;;;;-7.19;77.37;98297.00;123389;1102;64905;-80
2021/01/28 06:13:22;;;;;;;125.40;61.53;;;;;;;-7.24;77.66;98299.65;123305;1102;65075;-79
2021/01/28 06:16:07;;;;;;;125.30;64.10;;;;;;;-7.29;77.44;98302.27;123365;1102;64910;-79
2021/01/28 06:19:01;;;;;;;122.60;59.87;;;;;;;-7.35;77.56;98299.69;123376;1105;64933;-79
2021/01/28 06:22:09;;;;;;;126.50;63.13;;;;;;;-7.35;77.69;98288.48;123396;1102;64905;-82
2021/01/28 06:24:48;;;;;;;120.23;61.03;;;;;;;-7.38;77.95;98286.78;123368;1102;64937;-81
2021/01/28 06:27:36;;;;;;;118.43;59.87;;;;;;;-7.44;77.33;98273.03;123447;1102;64889;-81
2021/01/28 06:30:23;;;;;;;122.43;60.07;;;;;;;-7.50;77.70;98276.53;123418;1102;64985;-80
2021/01/28 06:32:57;;;;;;;127.67;64.70;;;;;;;-7.49;76.77;98272.20;123298;1102;64987;-79
2021/01/28 06:35:46;;;;;;;139.63;68.33;;;;;;;-7.48;77.53;98272.17;123378;1102;64908;-80
2021/01/28 06:38:40;;;;;;;139.85;70.10;;;;;;;-7.43;78.21;98278.19;123431;1102;64895;-80
2021/01/28 06:41:14;;;;;;;140.47;72.07;;;;;;;-7.33;77.40;98286.75;123332;1102;64940;-79
2021/01/28 06:43:46;;;;;;;142.03;73.80;;;;;;;-7.25;78.34;98284.11;123384;1102;64857;-79
2021/01/28 06:46:34;;;;;;;135.60;70.50;;;;;;;-7.16;77.64;98284.91;123349;1102;64950;-81
2021/01/28 06:49:17;;;;;;;144.40;73.83;;;;;;;-7.04;78.31;98283.09;123372;1103;64937;-79
2021/01/28 06:52:12;;;;;;;138.07;69.73;;;;;;;-6.88;78.28;98284.67;123350;1102;64910;-79
2021/01/28 06:54:57;;;;;;;136.70;69.93;;;;;;;-6.79;78.10;98273.36;123355;1102;64982;-80
2021/01/28 06:57:41;;;;;;;141.67;71.97;;;;;;;-6.79;77.17;98279.42;123365;1102;66374;-79
2021/01/28 07:00:11;;;;;;;142.43;73.30;;;;;;;-6.65;77.67;98274.11;123359;1102;64934;-79
2021/01/28 07:03:25;;;;;;;149.85;78.28;;;;;;;-6.36;78.30;98266.02;123417;1102;64908;-80
2021/01/28 07:06:13;;;;;;;139.27;80.03;;;;;;;-6.16;78.37;98254.55;123361;1102;64991;-81
2021/01/28 07:09:11;;;;;;;148.83;78.10;;;;;;;-6.07;77.73;98244.93;123353;1102;64988;-79
2021/01/28 07:11:40;;;;;;;128.30;71.45;;;;;;;-6.06;77.66;98238.86;123397;1102;64937;-79
2021/01/28 07:14:07;;;;;;;;;;;;;;;-6.07;77.44;98237.15;123463;1102;64889;-79
2021/01/28 07:16:39;;;;;;;139.93;74.97;;;;;;;-6.07;77.01;98228.52;123416;1102;64940;-79
2021/01/28 07:19:22;;;;;;;143.47;77.30;;;;;;;-5.97;77.50;98225.78;123367;1102;64914;-80
2021/01/28 07:21:52;;;;;;;131.37;70.97;;;;;;;-5.78;77.94;98215.12;123314;1102;65273;-80
2021/01/28 07:24:34;;;;;;;137.27;73.57;;;;;;;-5.66;77.41;98216.66;123431;1102;64934;-79
2021/01/28 07:27:06;;;;;;;124.83;68.80;;;;;;;-5.62;77.20;98200.18;123371;1105;64860;-81
2021/01/28 07:29:37;;;;;;;133.50;71.60;;;;;;;-5.48;77.47;98205.16;123590;1102;64946;-80
2021/01/28 07:32:07;;;;;;;137.90;74.87;;;;;;;-5.30;77.74;98199.67;123528;1102;64908;-80
2021/01/28 07:34:34;;;;;;;139.03;72.90;;;;;;;-5.23;77.84;98190.91;123445;1102;65026;-80
2021/01/28 07:37:27;;;;;;;133.70;74.90;;;;;;;-5.15;77.78;98190.78;123526;1102;65011;-81
2021/01/28 07:39:54;;;;;;;135.83;76.73;;;;;;;-5.03;77.75;98189.70;123366;1102;64837;-78
2021/01/28 07:42:31;;;;;;;153.05;83.90;;;;;;;-4.88;77.45;98186.83;123354;1103;64859;-80
2021/01/28 07:44:59;;;;;;;152.20;85.67;;;;;;;-4.72;77.94;98179.61;123398;1102;64867;-80
2021/01/28 07:47:31;;;;;;;136.77;78.87;;;;;;;-4.65;78.08;98189.02;123333;1102;65055;-81
2021/01/28 07:50:15;;;;;;;132.80;71.93;;;;;;;-4.56;78.22;98187.97;123360;1101;64934;-80
2021/01/28 07:52:42;;;;;;;117.93;67.67;;;;;;;-4.44;78.24;98183.39;123370;1102;65010;-80
2021/01/28 07:55:54;;;;;;;133.03;69.73;;;;;;;-4.31;77.97;98176.20;123384;1102;64835;-81
2021/01/28 07:58:27;;;;;;;111.63;61.87;;;;;;;-4.16;78.06;98182.84;123353;1102;64937;-80
2021/01/28 08:00:54;;;;;;;106.63;59.93;;;;;;;-4.01;77.33;98179.03;123343;1105;64966;-81
2021/01/28 08:03:39;;;;;;;100.77;58.83;;;;;;;-3.83;77.43;98172.58;123407;1102;64931;-80
2021/01/28 08:06:11;;;;;;;112.30;63.00;;;;;;;-3.63;77.89;98166.92;123359;1105;64992;-80
2021/01/28 08:08:38;;;;;;;103.83;58.10;;;;;;;-3.46;77.52;98166.52;123381;1102;64860;-80
2021/01/28 08:11:31;;;;;;;107.20;60.73;;;;;;;-3.24;78.07;98154.66;123345;1102;65230;-80
2021/01/28 08:13:58;;;;;;;95.73;54.60;;;;;;;-3.01;76.94;98155.83;123484;1102;66555;-80
2021/01/28 08:16:25;;;;;;;93.93;53.83;;;;;;;-2.87;77.48;98156.31;123439;1102;64931;-80
2021/01/28 08:19:00;;;;;;;92.03;54.03;;;;;;;-2.69;77.14;98140.17;123368;1102;64988;-80
2021/01/28 08:21:28;;;;;;;95.30;55.70;;;;;;;-2.52;76.97;98137.11;123396;1102;64888;-80
2021/01/28 08:23:55;;;;;;;92.10;53.70;;;;;;;-2.34;76.41;98130.52;123334;1102;64931;-80
2021/01/28 08:26:33;;;;;;;93.57;54.97;;;;;;;-2.17;76.78;98132.63;123361;1102;65037;-80
2021/01/28 08:29:21;;;;;;;87.90;53.83;;;;;;;-1.92;76.61;98130.14;123392;1102;64911;-80
2021/01/28 08:31:53;;;;;;;90.30;56.03;;;;;;;-1.65;76.56;98135.41;123350;1101;64940;-79
2021/01/28 08:34:31;;;;;;;83.03;48.73;;;;;;;-1.36;75.44;98124.02;123392;1102;64889;-79
2021/01/28 08:37:11;;;;;;;91.90;55.70;;;;;;;-1.05;76.31;98128.20;123357;1105;64988;-80
2021/01/28 08:39:37;;;;;;;90.47;55.50;;;;;;;-0.82;75.14;98124.80;123331;1102;64911;-80
2021/01/28 08:42:15;;;;;;;84.47;50.33;;;;;;;-0.65;75.40;98119.83;123362;1102;64894;-78
2021/01/28 08:44:44;;;;;;;90.90;54.53;;;;;;;-0.46;74.59;98128.71;123388;1105;64908;-77
2021/01/28 08:47:22;;;;;;;81.53;50.53;;;;;;;-0.22;74.61;98115.62;123404;1102;64921;-77
2021/01/28 08:50:00;;;;;;;72.87;48.03;;;;;;;0.04;74.35;98116.41;123373;1105;64908;-79
2021/01/28 08:52:27;;;;;;;69.60;42.07;;;;;;;0.24;73.72;98103.39;123369;1105;65070;-79
2021/01/28 08:54:54;;;;;;;58.80;37.03;;;;;;;0.39;73.52;98102.75;123377;1105;64995;-79
2021/01/28 08:57:24;;;;;;;60.83;37.53;;;;;;;0.52;73.32;98104.89;123372;1105;65394;-78
2021/01/28 08:59:52;;;;;;;;;;;;;;;0.50;72.72;98104.97;123488;1102;64937;-79
2021/01/28 09:02:29;;;;;;;68.93;40.77;;;;;;;0.51;72.64;98101.42;123331;1102;65320;-79
2021/01/28 09:05:22;;;;;;;74.95;42.40;;;;;;;0.55;72.28;98096.89;123334;1102;65042;-79
2021/01/28 09:07:53;;;;;;;76.07;45.77;;;;;;;0.60;73.10;98098.41;123394;1102;64934;-79
2021/01/28 09:10:40;;;;;;;89.73;47.97;;;;;;;0.62;71.89;98085.25;123383;1102;64988;-79
2021/01/28 09:13:17;;;;;;;88.40;48.47;;;;;;;0.65;71.69;98092.98;123421;1102;64912;-79
2021/01/28 09:15:44;;;;;;;86.80;46.80;;;;;;;0.68;71.62;98082.36;123361;1105;64917;-78
2021/01/28 09:18:21;;;;;;;78.07;44.37;;;;;;;0.64;70.88;98078.18;123394;1102;64975;-79
2021/01/28 09:20:48;;;;;;;65.87;38.23;;;;;;;0.63;69.88;98077.33;123406;1102;64908;-79
2021/01/28 09:23:17;;;;;;;82.67;45.43;;;;;;;0.57;70.16;98071.48;123349;1102;64889;-80
2021/01/28 09:25:47;;;;;;;83.83;46.50;;;;;;;0.58;70.93;98068.80;123369;1105;65428;-78
2021/01/28 09:28:20;;;;;;;80.87;47.60;;;;;;;0.58;70.38;98068.80;123405;1102;64902;-80
2021/01/28 09:30:49;;;;;;;85.90;49.47;;;;;;;0.55;70.47;98058.42;123393;1102;64934;-82
2021/01/28 09:33:36;;;;;;;84.32;49.48;;;;;;;0.49;70.41;98056.06;123426;1102;65285;-79
2021/01/28 09:36:06;;;;;;;105.33;53.30;;;;;;;0.56;70.89;98054.05;123431;1102;64905;-81
2021/01/28 09:38:33;;;;;;;85.93;51.10;;;;;;;0.62;70.25;98048.55;123369;1102;64889;-79
2021/01/28 09:41:18;;;;;;;91.37;51.20;;;;;;;0.80;70.58;98052.16;123344;1102;64902;-79
2021/01/28 09:43:45;;;;;;;112.57;62.33;;;;;;;1.07;70.17;98043.08;123340;1102;64991;-79
2021/01/28 09:46:17;;;;;;;101.63;55.83;;;;;;;1.36;70.51;98037.47;123363;1105;64940;-78
2021/01/28 09:48:49;;;;;;;82.10;47.77;;;;;;;1.58;69.43;98019.83;123344;1102;65309;-79
2021/01/28 09:51:35;;;;;;;78.27;45.13;;;;;;;1.73;69.44;98016.46;123425;1102;64905;-79
2021/01/28 09:54:14;;;;;;;76.90;47.40;;;;;;;1.79;68.66;98019.73;123345;1102;64908;-79
2021/01/28 09:56:42;;;;;;;77.13;46.93;;;;;;;1.83;69.24;98018.67;123419;1102;64976;-79
2021/01/28 09:59:09;;;;;;;83.47;50.20;;;;;;;1.89;69.25;98003.45;123386;1102;64861;-79
2021/01/28 10:01:36;;;;;;;85.95;49.25;;;;;;;1.92;69.33;97995.45;123442;1102;64911;-79
2021/01/28 10:04:03;;;;;;;85.10;48.65;;;;;;;1.96;68.66;97998.77;123372;1105;64888;-79
2021/01/28 10:06:29;;;;;;;79.40;47.27;;;;;;;2.03;68.99;97979.16;123381;1102;64981;-78
2021/01/28 10:08:56;;;;;;;81.07;45.97;;;;;;;2.12;68.58;97981.33;123331;1105;64988;-78
2021/01/28 10:11:24;;;;;;;71.40;42.47;;;;;;;2.34;68.76;97975.00;123355;1102;64971;-79
2021/01/28 10:13:51;;;;;;;63.20;38.90;;;;;;;2.52;68.26;97957.45;123412;1102;64899;-79
2021/01/28 10:16:17;;;;;;;70.23;39.40;;;;;;;2.66;68.12;97964.63;123364;1102;64930;-79
2021/01/28 10:18:44;;;;;;;62.03;36.83;;;;;;;2.76;67.70;97953.55;123359;1102;65013;-79
2021/01/28 10:21:11;;;;;;;62.55;36.60;;;;;;;2.86;67.68;97960.03;123383;1102;64992;-78
2021/01/28 10:23:37;;;;;;;56.77;32.57;;;;;;;3.03;67.04;97960.95;123382;1102;65026;-79
2021/01/28 10:26:03;;;;;;;47.07;29.53;;;;;;;3.12;67.14;97942.02;123373;1102;64869;-79
2021/01/28 10:28:30;;;;;;;49.50;30.80;;;;;;;3.22;66.76;97937.11;123388;1102;64908;-79
2021/01/28 10:30:57;;;;;;;54.17;31.77;;;;;;;3.32;66.83;97937.44;123351;1105;64933;-79
2021/01/28 10:33:28;;;;;;;40.40;25.23;;;;;;;3.23;66.57;97934.38;123337;1102;65394;-79
2021/01/28 10:35:55;;;;;;;30.80;19.80;;;;;;;3.09;65.58;97921.13;123373;1102;64947;-79
2021/01/28 10:38:21;;;;;;;28.47;17.33;;;;;;;3.02;66.29;97930.28;123352;1105;65011;-79
2021/01/28 10:40:48;;;;;;;22.60;13.93;;;;;;;3.02;66.36;97925.85;123422;1102;64908;-79
2021/01/28 10:43:14;;;;;;;19.70;13.00;;;;;;;3.08;66.62;97919.41;123388;1101;65354;-79
2021/01/28 10:45:43;;;;;;;20.87;13.57;;;;;;;3.24;67.22;97903.66;123357;1101;64901;-81
2021/01/28 10:48:10;;;;;;;25.60;15.23;;;;;;;3.41;66.19;97900.92;123477;1103;64940;-81
2021/01/28 10:50:36;;;;;;;20.87;13.70;;;;;;;3.58;65.72;97897.37;123463;1105;64895;-80
2021/01/28 10:53:04;;;;;;;16.00;11.83;;;;;;;3.62;65.87;97890.13;123506;1102;64889;-79
2021/01/28 10:55:32;;;;;;;17.53;12.03;;;;;;;3.70;65.15;97883.48;123334;1102;64979;-79
2021/01/28 10:57:59;;;;;;;19.93;13.87;;;;;;;3.73;65.64;97888.58;123364;1102;65011;-79
2021/01/28 11:00:26;;;;;;;18.57;12.37;;;;;;;3.67;64.93;97878.39;123364;1102;64990;-78
2021/01/28 11:02:53;;;;;;;20.40;12.70;;;;;;;3.71;65.29;97874.66;123388;1102;64895;-79
2021/01/28 11:05:33;;;;;;;20.30;11.97;;;;;;;3.86;65.39;97874.70;123399;1102;64896;-78
2021/01/28 11:08:01;;;;;;;17.40;12.10;;;;;;;3.99;64.87;97869.57;123388;1102;65338;-80
2021/01/28 11:10:28;;;;;;;17.50;12.10;;;;;;;4.01;65.06;97872.97;123360;1102;64966;-80
2021/01/28 11:12:57;;;;;;;16.83;11.90;;;;;;;3.96;65.26;97871.44;123442;1100;64981;-79
2021/01/28 11:15:28;;;;;;;16.80;10.93;;;;;;;3.90;64.48;97860.42;123423;1102;64891;-78
2021/01/28 11:17:55;;;;;;;16.87;11.50;;;;;;;3.78;64.97;97856.70;123360;1105;65010;-79
2021/01/28 11:20:21;;;;;;;17.67;12.07;;;;;;;3.72;65.36;97850.00;123352;1105;64885;-80
2021/01/28 11:22:48;;;;;;;17.25;11.30;;;;;;;3.69;64.62;97857.23;123406;1102;65020;-80
2021/01/28 11:25:19;;;;;;;16.10;12.53;;;;;;;3.60;65.07;97847.21;123387;1102;65033;-80
2021/01/28 11:27:48;;;;;;;16.00;12.00;;;;;;;3.58;65.33;97849.95;123315;1102;64982;-80
2021/01/28 11:30:17;;;;;;;17.00;11.40;;;;;;;3.58;65.50;97842.05;123376;1102;64889;-79